sensor_id;sensor_type;location;lat;lon;timestamp;pressure;altitude;pressure_sealevel;temperature;humidity
85888;BME280;77438;40.406;21.768;2024-03-23T00:54:46;93576.61;;;3.26;73.57
85888;BME280;77438;40.406;21.768;2024-03-23T00:55:41;93575.08;;;3.23;73.78
85888;BME280;77438;40.406;21.768;2024-03-23T00:56:37;93578.61;;;3.22;73.47
85888;BME280;77438;40.406;21.768;2024-03-23T00:57:32;93578.85;;;3.24;72.92
85888;BME280;77438;40.406;21.768;2024-03-23T00:58:27;93576.75;;;3.28;72.51
85888;BME280;77438;40.406;21.768;2024-03-23T00:59:23;93574.92;;;3.27;73.15
85888;BME280;77438;40.406;21.768;2024-03-23T01:00:18;93579.36;;;3.26;72.82
85888;BME280;77438;40.406;21.768;2024-03-23T01:01:14;93576.12;;;3.23;72.75
85888;BME280;77438;40.406;21.768;2024-03-23T01:02:09;93576.20;;;3.22;72.31
85888;BME280;77438;40.406;21.768;2024-03-23T01:03:05;93574.98;;;3.23;72.26
85888;BME280;77438;40.406;21.768;2024-03-23T01:04:01;93571.60;;;3.21;72.52
85888;BME280;77438;40.406;21.768;2024-03-23T01:04:57;93576.55;;;3.21;72.67
85888;BME280;77438;40.406;21.768;2024-03-23T01:05:53;93571.30;;;3.23;72.81
85888;BME280;77438;40.406;21.768;2024-03-23T01:06:48;93571.36;;;3.25;73.63
85888;BME280;77438;40.406;21.768;2024-03-23T01:07:44;93568.52;;;3.25;73.67
85888;BME280;77438;40.406;21.768;2024-03-23T01:08:39;93569.39;;;3.26;73.00
85888;BME280;77438;40.406;21.768;2024-03-23T01:09:34;93569.45;;;3.27;73.46
85888;BME280;77438;40.406;21.768;2024-03-23T01:10:29;93564.73;;;3.27;73.51
85888;BME280;77438;40.406;21.768;2024-03-23T01:11:25;93567.09;;;3.29;73.56
85888;BME280;77438;40.406;21.768;2024-03-23T01:12:20;93569.64;;;3.30;73.74
85888;BME280;77438;40.406;21.768;2024-03-23T01:13:15;93565.84;;;3.30;73.28
85888;BME280;77438;40.406;21.768;2024-03-23T01:14:11;93568.38;;;3.30;72.91
85888;BME280;77438;40.406;21.768;2024-03-23T01:15:08;93569.36;;;3.30;73.17
85888;BME280;77438;40.406;21.768;2024-03-23T01:16:05;93567.96;;;3.31;73.38
85888;BME280;77438;40.406;21.768;2024-03-23T01:17:00;93566.61;;;3.31;73.54
85888;BME280;77438;40.406;21.768;2024-03-23T01:17:55;93566.64;;;3.28;73.54
85888;BME280;77438;40.406;21.768;2024-03-23T01:18:51;93565.27;;;3.24;73.48
85888;BME280;77438;40.406;21.768;2024-03-23T01:19:46;93564.81;;;3.20;73.68
85888;BME280;77438;40.406;21.768;2024-03-23T01:20:41;93565.42;;;3.17;74.07
85888;BME280;77438;40.406;21.768;2024-03-23T01:21:37;93564.67;;;3.16;74.35
85888;BME280;77438;40.406;21.768;2024-03-23T01:22:32;93565.91;;;3.17;74.10
85888;BME280;77438;40.406;21.768;2024-03-23T01:23:27;93562.48;;;3.19;74.15
85888;BME280;77438;40.406;21.768;2024-03-23T01:24:23;93570.27;;;3.20;74.16
85888;BME280;77438;40.406;21.768;2024-03-23T01:25:18;93564.13;;;3.20;74.11
85888;BME280;77438;40.406;21.768;2024-03-23T01:26:14;93566.94;;;3.19;74.17
85888;BME280;77438;40.406;21.768;2024-03-23T01:27:10;93566.78;;;3.21;74.37
85888;BME280;77438;40.406;21.768;2024-03-23T01:28:06;93564.64;;;3.22;74.39
85888;BME280;77438;40.406;21.768;2024-03-23T01:29:01;93563.19;;;3.21;74.44
85888;BME280;77438;40.406;21.768;2024-03-23T01:29:56;93567.45;;;3.21;73.98
85888;BME280;77438;40.406;21.768;2024-03-23T01:30:52;93569.44;;;3.20;74.50
85888;BME280;77438;40.406;21.768;2024-03-23T01:31:47;93565.10;;;3.19;74.73
85888;BME280;77438;40.406;21.768;2024-03-23T01:32:42;93563.33;;;3.21;74.84
85888;BME280;77438;40.406;21.768;2024-03-23T01:33:38;93569.43;;;3.22;74.75
85888;BME280;77438;40.406;21.768;2024-03-23T01:34:33;93566.29;;;3.22;74.33
85888;BME280;77438;40.406;21.768;2024-03-23T01:35:28;93567.64;;;3.15;73.93
85888;BME280;77438;40.406;21.768;2024-03-23T01:36:24;93563.12;;;3.06;73.96
85888;BME280;77438;40.406;21.768;2024-03-23T01:37:19;93563.45;;;2.97;74.57
85888;BME280;77438;40.406;21.768;2024-03-23T01:38:14;93562.90;;;2.88;74.61
85888;BME280;77438;40.406;21.768;2024-03-23T01:39:09;93563.75;;;2.81;74.41
85888;BME280;77438;40.406;21.768;2024-03-23T01:40:06;93566.08;;;2.75;74.75
85888;BME280;77438;40.406;21.768;2024-03-23T01:41:02;93561.20;;;2.68;75.10
85888;BME280;77438;40.406;21.768;2024-03-23T01:41:57;93561.72;;;2.63;75.22
85888;BME280;77438;40.406;21.768;2024-03-23T01:43:03;93562.50;;;2.57;75.19
85888;BME280;77438;40.406;21.768;2024-03-23T01:43:59;93560.94;;;2.51;75.38
85888;BME280;77438;40.406;21.768;2024-03-23T01:44:59;93557.84;;;2.47;76.13
85888;BME280;77438;40.406;21.768;2024-03-23T01:45:56;93560.83;;;2.47;76.59
85888;BME280;77438;40.406;21.768;2024-03-23T01:46:51;93557.84;;;2.49;77.07
85888;BME280;77438;40.406;21.768;2024-03-23T01:47:47;93560.94;;;2.53;77.10
85888;BME280;77438;40.406;21.768;2024-03-23T01:48:42;93556.88;;;2.56;77.71
85888;BME280;77438;40.406;21.768;2024-03-23T01:49:38;93558.49;;;2.60;77.65
85888;BME280;77438;40.406;21.768;2024-03-23T01:50:34;93560.39;;;2.62;77.32
85888;BME280;77438;40.406;21.768;2024-03-23T01:51:30;93558.01;;;2.62;76.86
85888;BME280;77438;40.406;21.768;2024-03-23T01:52:27;93557.77;;;2.62;77.20
85888;BME280;77438;40.406;21.768;2024-03-23T01:53:23;93560.36;;;2.61;77.08
85888;BME280;77438;40.406;21.768;2024-03-23T01:54:18;93558.65;;;2.60;77.20
85888;BME280;77438;40.406;21.768;2024-03-23T01:55:14;93558.29;;;2.58;77.06
85888;BME280;77438;40.406;21.768;2024-03-23T01:56:09;93561.19;;;2.58;76.78
85888;BME280;77438;40.406;21.768;2024-03-23T01:57:06;93560.41;;;2.59;77.02
85888;BME280;77438;40.406;21.768;2024-03-23T01:58:01;93559.33;;;2.58;77.26
85888;BME280;77438;40.406;21.768;2024-03-23T01:58:56;93557.73;;;2.58;77.20
85888;BME280;77438;40.406;21.768;2024-03-23T01:59:52;93553.23;;;2.56;77.29
85888;BME280;77438;40.406;21.768;2024-03-23T02:00:47;93557.66;;;2.53;77.85
85888;BME280;77438;40.406;21.768;2024-03-23T02:01:42;93558.84;;;2.53;77.25
85888;BME280;77438;40.406;21.768;2024-03-23T02:02:38;93560.73;;;2.55;77.29
85888;BME280;77438;40.406;21.768;2024-03-23T02:03:35;93561.52;;;2.57;77.86
85888;BME280;77438;40.406;21.768;2024-03-23T02:04:30;93560.84;;;2.58;77.79
85888;BME280;77438;40.406;21.768;2024-03-23T02:05:26;93561.39;;;2.59;77.59
85888;BME280;77438;40.406;21.768;2024-03-23T02:06:21;93560.48;;;2.59;77.26
85888;BME280;77438;40.406;21.768;2024-03-23T02:07:17;93560.04;;;2.57;77.19
85888;BME280;77438;40.406;21.768;2024-03-23T02:08:12;93560.91;;;2.55;77.36
85888;BME280;77438;40.406;21.768;2024-03-23T02:09:07;93558.17;;;2.54;77.25
85888;BME280;77438;40.406;21.768;2024-03-23T02:10:04;93557.89;;;2.53;77.46
85888;BME280;77438;40.406;21.768;2024-03-23T02:10:59;93559.85;;;2.52;77.01
85888;BME280;77438;40.406;21.768;2024-03-23T02:11:55;93558.88;;;2.52;77.27
85888;BME280;77438;40.406;21.768;2024-03-23T02:12:50;93560.23;;;2.52;77.54
85888;BME280;77438;40.406;21.768;2024-03-23T02:13:45;93559.42;;;2.53;77.19
85888;BME280;77438;40.406;21.768;2024-03-23T02:14:40;93561.59;;;2.52;77.56
85888;BME280;77438;40.406;21.768;2024-03-23T02:15:36;93562.30;;;2.51;77.51
85888;BME280;77438;40.406;21.768;2024-03-23T02:16:31;93560.87;;;2.50;77.18
85888;BME280;77438;40.406;21.768;2024-03-23T02:17:27;93559.69;;;2.47;77.09
85888;BME280;77438;40.406;21.768;2024-03-23T02:18:23;93558.20;;;2.46;77.42
85888;BME280;77438;40.406;21.768;2024-03-23T02:19:18;93558.16;;;2.43;77.33
85888;BME280;77438;40.406;21.768;2024-03-23T02:20:13;93558.66;;;2.42;77.23
85888;BME280;77438;40.406;21.768;2024-03-23T02:21:09;93561.13;;;2.42;77.77
85888;BME280;77438;40.406;21.768;2024-03-23T02:22:04;93560.90;;;2.43;78.23
85888;BME280;77438;40.406;21.768;2024-03-23T02:22:59;93558.13;;;2.42;78.07
85888;BME280;77438;40.406;21.768;2024-03-23T02:23:55;93560.74;;;2.43;77.54
85888;BME280;77438;40.406;21.768;2024-03-23T02:24:50;93556.17;;;2.41;77.65
85888;BME280;77438;40.406;21.768;2024-03-23T02:25:46;93558.86;;;2.39;77.43
85888;BME280;77438;40.406;21.768;2024-03-23T02:26:41;93560.14;;;2.38;77.87
85888;BME280;77438;40.406;21.768;2024-03-23T02:27:36;93561.52;;;2.37;77.70
85888;BME280;77438;40.406;21.768;2024-03-23T02:28:32;93556.75;;;2.35;77.49
85888;BME280;77438;40.406;21.768;2024-03-23T02:29:27;93558.44;;;2.35;77.93
85888;BME280;77438;40.406;21.768;2024-03-23T02:30:22;93552.86;;;2.36;78.48
85888;BME280;77438;40.406;21.768;2024-03-23T02:31:18;93556.23;;;2.36;78.04
85888;BME280;77438;40.406;21.768;2024-03-23T02:32:13;93554.56;;;2.32;77.93
85888;BME280;77438;40.406;21.768;2024-03-23T02:33:08;93555.45;;;2.29;77.97
85888;BME280;77438;40.406;21.768;2024-03-23T02:34:04;93552.75;;;2.26;78.21
85888;BME280;77438;40.406;21.768;2024-03-23T02:34:59;93553.08;;;2.23;77.97
85888;BME280;77438;40.406;21.768;2024-03-23T02:35:57;93555.58;;;2.18;78.23
85888;BME280;77438;40.406;21.768;2024-03-23T02:36:52;93554.73;;;2.09;77.97
85888;BME280;77438;40.406;21.768;2024-03-23T02:37:49;93554.34;;;2.04;78.48
85888;BME280;77438;40.406;21.768;2024-03-23T02:38:44;93553.49;;;2.02;79.17
85888;BME280;77438;40.406;21.768;2024-03-23T02:39:40;93552.02;;;2.03;79.45
85888;BME280;77438;40.406;21.768;2024-03-23T02:40:35;93553.73;;;2.04;79.17
85888;BME280;77438;40.406;21.768;2024-03-23T02:41:30;93554.89;;;2.05;78.99
85888;BME280;77438;40.406;21.768;2024-03-23T02:42:25;93551.79;;;2.06;78.75
85888;BME280;77438;40.406;21.768;2024-03-23T02:43:21;93552.34;;;2.06;78.59
85888;BME280;77438;40.406;21.768;2024-03-23T02:44:16;93551.31;;;2.07;78.80
85888;BME280;77438;40.406;21.768;2024-03-23T02:45:11;93552.11;;;2.05;78.54
85888;BME280;77438;40.406;21.768;2024-03-23T02:46:06;93552.34;;;2.05;78.83
85888;BME280;77438;40.406;21.768;2024-03-23T02:47:02;93553.36;;;2.04;79.18
85888;BME280;77438;40.406;21.768;2024-03-23T02:47:57;93553.53;;;2.03;79.06
85888;BME280;77438;40.406;21.768;2024-03-23T02:48:52;93553.94;;;2.04;79.66
85888;BME280;77438;40.406;21.768;2024-03-23T02:49:48;93552.63;;;2.04;79.16
85888;BME280;77438;40.406;21.768;2024-03-23T02:50:43;93556.38;;;2.05;79.40
85888;BME280;77438;40.406;21.768;2024-03-23T02:51:38;93552.38;;;2.06;78.97
85888;BME280;77438;40.406;21.768;2024-03-23T02:52:34;93551.54;;;2.05;79.14
85888;BME280;77438;40.406;21.768;2024-03-23T02:53:29;93555.02;;;2.04;78.69
85888;BME280;77438;40.406;21.768;2024-03-23T02:54:24;93557.85;;;2.02;78.69
85888;BME280;77438;40.406;21.768;2024-03-23T02:55:20;93553.81;;;2.01;78.97
85888;BME280;77438;40.406;21.768;2024-03-23T02:56:15;93552.17;;;2.01;78.92
85888;BME280;77438;40.406;21.768;2024-03-23T02:57:10;93552.23;;;2.03;79.20
85888;BME280;77438;40.406;21.768;2024-03-23T02:58:06;93551.13;;;2.03;79.16
85888;BME280;77438;40.406;21.768;2024-03-23T02:59:01;93554.44;;;1.99;79.24
85888;BME280;77438;40.406;21.768;2024-03-23T02:59:57;93557.15;;;1.95;79.00
85888;BME280;77438;40.406;21.768;2024-03-23T03:00:52;93557.92;;;1.93;79.35
85888;BME280;77438;40.406;21.768;2024-03-23T03:01:47;93555.71;;;1.94;79.49
85888;BME280;77438;40.406;21.768;2024-03-23T03:02:43;93558.21;;;1.95;78.94
85888;BME280;77438;40.406;21.768;2024-03-23T03:03:38;93553.34;;;1.95;78.92
85888;BME280;77438;40.406;21.768;2024-03-23T03:04:34;93555.94;;;1.93;78.84
85888;BME280;77438;40.406;21.768;2024-03-23T03:05:29;93556.77;;;1.91;78.54
85888;BME280;77438;40.406;21.768;2024-03-23T03:06:28;93558.20;;;1.90;78.75
85888;BME280;77438;40.406;21.768;2024-03-23T03:07:23;93560.89;;;1.88;78.74
85888;BME280;77438;40.406;21.768;2024-03-23T03:08:18;93555.20;;;1.87;78.97
85888;BME280;77438;40.406;21.768;2024-03-23T03:09:13;93555.13;;;1.86;78.77
85888;BME280;77438;40.406;21.768;2024-03-23T03:10:09;93546.33;;;1.77;78.80
85888;BME280;77438;40.406;21.768;2024-03-23T03:11:05;93554.61;;;1.81;78.86
85888;BME280;77438;40.406;21.768;2024-03-23T03:12:00;93553.30;;;1.79;78.91
85888;BME280;77438;40.406;21.768;2024-03-23T03:12:56;93556.73;;;1.78;79.07
85888;BME280;77438;40.406;21.768;2024-03-23T03:13:51;93553.95;;;1.78;79.20
85888;BME280;77438;40.406;21.768;2024-03-23T03:14:47;93552.27;;;1.78;79.40
85888;BME280;77438;40.406;21.768;2024-03-23T03:15:43;93553.55;;;1.79;79.50
85888;BME280;77438;40.406;21.768;2024-03-23T03:16:38;93552.69;;;1.79;79.74
85888;BME280;77438;40.406;21.768;2024-03-23T03:17:33;93551.28;;;1.78;79.77
85888;BME280;77438;40.406;21.768;2024-03-23T03:18:29;93552.39;;;1.77;79.56
85888;BME280;77438;40.406;21.768;2024-03-23T03:19:24;93550.59;;;1.79;79.72
85888;BME280;77438;40.406;21.768;2024-03-23T03:20:19;93553.18;;;1.80;79.51
85888;BME280;77438;40.406;21.768;2024-03-23T03:21:15;93554.48;;;1.80;79.66
85888;BME280;77438;40.406;21.768;2024-03-23T03:22:10;93554.63;;;1.80;79.60
85888;BME280;77438;40.406;21.768;2024-03-23T03:23:06;93558.29;;;1.80;79.58
85888;BME280;77438;40.406;21.768;2024-03-23T03:24:01;93557.06;;;1.81;79.77
85888;BME280;77438;40.406;21.768;2024-03-23T03:24:56;93555.36;;;1.83;79.73
85888;BME280;77438;40.406;21.768;2024-03-23T03:25:52;93555.05;;;1.84;79.64
85888;BME280;77438;40.406;21.768;2024-03-23T03:26:47;93558.30;;;1.86;79.49
85888;BME280;77438;40.406;21.768;2024-03-23T03:27:42;93558.29;;;1.87;79.70
85888;BME280;77438;40.406;21.768;2024-03-23T03:28:38;93559.53;;;1.88;80.03
85888;BME280;77438;40.406;21.768;2024-03-23T03:29:33;93558.30;;;1.89;79.26
85888;BME280;77438;40.406;21.768;2024-03-23T03:30:28;93557.39;;;1.87;79.15
85888;BME280;77438;40.406;21.768;2024-03-23T03:31:24;93560.59;;;1.85;79.53
85888;BME280;77438;40.406;21.768;2024-03-23T03:32:19;93560.18;;;1.85;80.24
85888;BME280;77438;40.406;21.768;2024-03-23T03:33:14;93560.90;;;1.85;80.03
85888;BME280;77438;40.406;21.768;2024-03-23T03:34:10;93561.70;;;1.85;79.90
85888;BME280;77438;40.406;21.768;2024-03-23T03:35:06;93558.79;;;1.84;79.73
85888;BME280;77438;40.406;21.768;2024-03-23T03:36:01;93559.26;;;1.81;79.74
85888;BME280;77438;40.406;21.768;2024-03-23T03:36:57;93562.98;;;1.79;79.75
85888;BME280;77438;40.406;21.768;2024-03-23T03:37:53;93557.36;;;1.78;79.92
85888;BME280;77438;40.406;21.768;2024-03-23T03:38:48;93557.30;;;1.78;80.22
85888;BME280;77438;40.406;21.768;2024-03-23T03:39:43;93562.17;;;1.78;80.03
85888;BME280;77438;40.406;21.768;2024-03-23T03:40:39;93554.98;;;1.77;79.74
85888;BME280;77438;40.406;21.768;2024-03-23T03:41:34;93558.73;;;1.75;80.05
85888;BME280;77438;40.406;21.768;2024-03-23T03:42:29;93559.26;;;1.74;80.12
85888;BME280;77438;40.406;21.768;2024-03-23T03:43:25;93560.54;;;1.73;80.36
85888;BME280;77438;40.406;21.768;2024-03-23T03:44:20;93561.13;;;1.72;80.22
85888;BME280;77438;40.406;21.768;2024-03-23T03:45:15;93557.84;;;1.71;80.28
85888;BME280;77438;40.406;21.768;2024-03-23T03:46:11;93559.23;;;1.70;80.22
85888;BME280;77438;40.406;21.768;2024-03-23T03:47:07;93560.59;;;1.71;80.12
85888;BME280;77438;40.406;21.768;2024-03-23T03:48:02;93561.14;;;1.69;80.08
85888;BME280;77438;40.406;21.768;2024-03-23T03:48:58;93560.79;;;1.69;80.43
85888;BME280;77438;40.406;21.768;2024-03-23T03:49:53;93559.75;;;1.68;80.39
85888;BME280;77438;40.406;21.768;2024-03-23T03:50:48;93563.09;;;1.67;80.18
85888;BME280;77438;40.406;21.768;2024-03-23T03:51:44;93561.02;;;1.66;80.29
85888;BME280;77438;40.406;21.768;2024-03-23T03:52:40;93560.72;;;1.65;80.26
85888;BME280;77438;40.406;21.768;2024-03-23T03:53:35;93563.03;;;1.64;79.96
85888;BME280;77438;40.406;21.768;2024-03-23T03:54:30;93564.27;;;1.63;80.05
85888;BME280;77438;40.406;21.768;2024-03-23T03:55:25;93566.12;;;1.63;80.04
85888;BME280;77438;40.406;21.768;2024-03-23T03:56:21;93563.45;;;1.62;80.26
85888;BME280;77438;40.406;21.768;2024-03-23T03:57:16;93561.18;;;1.63;80.47
85888;BME280;77438;40.406;21.768;2024-03-23T03:58:11;93565.08;;;1.65;80.16
85888;BME280;77438;40.406;21.768;2024-03-23T03:59:07;93562.38;;;1.66;80.02
85888;BME280;77438;40.406;21.768;2024-03-23T04:00:02;93565.04;;;1.67;80.17
85888;BME280;77438;40.406;21.768;2024-03-23T04:00:58;93566.41;;;1.68;80.10
85888;BME280;77438;40.406;21.768;2024-03-23T04:01:53;93562.84;;;1.68;80.09
85888;BME280;77438;40.406;21.768;2024-03-23T04:02:48;93564.05;;;1.68;79.94
85888;BME280;77438;40.406;21.768;2024-03-23T04:03:44;93564.48;;;1.68;80.15
85888;BME280;77438;40.406;21.768;2024-03-23T04:04:40;93566.27;;;1.67;80.13
85888;BME280;77438;40.406;21.768;2024-03-23T04:05:35;93565.09;;;1.66;79.99
85888;BME280;77438;40.406;21.768;2024-03-23T04:06:30;93563.10;;;1.64;79.77
85888;BME280;77438;40.406;21.768;2024-03-23T04:07:26;93564.78;;;1.61;80.27
85888;BME280;77438;40.406;21.768;2024-03-23T04:08:23;93564.80;;;1.60;79.96
85888;BME280;77438;40.406;21.768;2024-03-23T04:09:19;93563.67;;;1.59;80.24
85888;BME280;77438;40.406;21.768;2024-03-23T04:10:14;93559.70;;;1.59;80.51
85888;BME280;77438;40.406;21.768;2024-03-23T04:11:09;93563.37;;;1.59;80.46
85888;BME280;77438;40.406;21.768;2024-03-23T04:12:06;93564.69;;;1.56;80.05
85888;BME280;77438;40.406;21.768;2024-03-23T04:13:01;93566.08;;;1.55;80.32
85888;BME280;77438;40.406;21.768;2024-03-23T04:13:57;93565.34;;;1.53;80.26
85888;BME280;77438;40.406;21.768;2024-03-23T04:14:52;93563.54;;;1.52;80.34
85888;BME280;77438;40.406;21.768;2024-03-23T04:15:47;93564.59;;;1.52;80.58
85888;BME280;77438;40.406;21.768;2024-03-23T04:16:42;93566.19;;;1.52;80.56
85888;BME280;77438;40.406;21.768;2024-03-23T04:17:38;93564.45;;;1.53;80.28
85888;BME280;77438;40.406;21.768;2024-03-23T04:18:33;93565.65;;;1.53;80.56
85888;BME280;77438;40.406;21.768;2024-03-23T04:19:29;93565.77;;;1.54;80.66
85888;BME280;77438;40.406;21.768;2024-03-23T04:20:24;93568.02;;;1.54;80.64
85888;BME280;77438;40.406;21.768;2024-03-23T04:21:19;93566.45;;;1.53;80.47
85888;BME280;77438;40.406;21.768;2024-03-23T04:22:14;93564.71;;;1.52;80.96
85888;BME280;77438;40.406;21.768;2024-03-23T04:23:10;93564.04;;;1.53;81.04
85888;BME280;77438;40.406;21.768;2024-03-23T04:24:06;93565.77;;;1.53;81.04
85888;BME280;77438;40.406;21.768;2024-03-23T04:25:02;93566.97;;;1.53;80.43
85888;BME280;77438;40.406;21.768;2024-03-23T04:25:57;93570.11;;;1.53;80.36
85888;BME280;77438;40.406;21.768;2024-03-23T04:26:57;93570.04;;;1.51;80.69
85888;BME280;77438;40.406;21.768;2024-03-23T04:27:52;93567.05;;;1.51;80.92
85888;BME280;77438;40.406;21.768;2024-03-23T04:28:48;93569.11;;;1.53;80.96
85888;BME280;77438;40.406;21.768;2024-03-23T04:29:43;93566.58;;;1.54;80.80
85888;BME280;77438;40.406;21.768;2024-03-23T04:30:41;93570.40;;;1.54;80.54
85888;BME280;77438;40.406;21.768;2024-03-23T04:31:36;93570.61;;;1.54;80.80
85888;BME280;77438;40.406;21.768;2024-03-23T04:32:32;93573.83;;;1.53;80.77
85888;BME280;77438;40.406;21.768;2024-03-23T04:33:27;93568.76;;;1.54;80.53
85888;BME280;77438;40.406;21.768;2024-03-23T04:34:23;93572.98;;;1.56;80.50
85888;BME280;77438;40.406;21.768;2024-03-23T04:35:18;93576.99;;;1.58;80.62
85888;BME280;77438;40.406;21.768;2024-03-23T04:36:14;93574.54;;;1.60;80.33
85888;BME280;77438;40.406;21.768;2024-03-23T04:37:09;93570.42;;;1.62;80.63
85888;BME280;77438;40.406;21.768;2024-03-23T04:38:05;93571.30;;;1.65;80.51
85888;BME280;77438;40.406;21.768;2024-03-23T04:39:01;93572.98;;;1.67;80.68
85888;BME280;77438;40.406;21.768;2024-03-23T04:39:56;93573.63;;;1.68;80.41
85888;BME280;77438;40.406;21.768;2024-03-23T04:40:57;93573.97;;;1.70;80.80
85888;BME280;77438;40.406;21.768;2024-03-23T04:41:54;93574.73;;;1.73;80.91
85888;BME280;77438;40.406;21.768;2024-03-23T04:42:49;93575.30;;;1.76;81.01
85888;BME280;77438;40.406;21.768;2024-03-23T04:43:44;93576.64;;;1.78;80.54
85888;BME280;77438;40.406;21.768;2024-03-23T04:44:40;93577.96;;;1.82;80.72
85888;BME280;77438;40.406;21.768;2024-03-23T04:45:35;93577.34;;;1.86;80.61
85888;BME280;77438;40.406;21.768;2024-03-23T04:46:30;93582.66;;;1.91;80.26
85888;BME280;77438;40.406;21.768;2024-03-23T04:47:26;93578.58;;;1.96;80.15
85888;BME280;77438;40.406;21.768;2024-03-23T04:48:22;93578.11;;;2.03;80.12
85888;BME280;77438;40.406;21.768;2024-03-23T04:49:17;93574.10;;;2.11;80.02
85888;BME280;77438;40.406;21.768;2024-03-23T04:50:14;93580.77;;;2.23;79.80
85888;BME280;77438;40.406;21.768;2024-03-23T04:51:09;93580.36;;;2.33;79.83
85888;BME280;77438;40.406;21.768;2024-03-23T04:52:05;93580.31;;;2.41;79.76
85888;BME280;77438;40.406;21.768;2024-03-23T04:53:00;93579.40;;;2.52;79.62
85888;BME280;77438;40.406;21.768;2024-03-23T04:53:56;93579.73;;;2.61;79.66
85888;BME280;77438;40.406;21.768;2024-03-23T04:54:51;93580.57;;;2.70;79.40
85888;BME280;77438;40.406;21.768;2024-03-23T04:55:47;93579.09;;;2.80;79.18
85888;BME280;77438;40.406;21.768;2024-03-23T04:56:42;93581.35;;;2.90;79.04
85888;BME280;77438;40.406;21.768;2024-03-23T04:57:37;93577.95;;;3.01;78.78
85888;BME280;77438;40.406;21.768;2024-03-23T04:58:33;93579.38;;;3.11;78.33
85888;BME280;77438;40.406;21.768;2024-03-23T04:59:28;93578.47;;;3.21;78.49
85888;BME280;77438;40.406;21.768;2024-03-23T05:00:23;93583.30;;;3.31;78.34
85888;BME280;77438;40.406;21.768;2024-03-23T05:01:19;93579.54;;;3.43;77.93
85888;BME280;77438;40.406;21.768;2024-03-23T05:02:14;93580.80;;;3.56;77.62
85888;BME280;77438;40.406;21.768;2024-03-23T05:03:10;93583.95;;;3.70;77.22
85888;BME280;77438;40.406;21.768;2024-03-23T05:04:05;93583.11;;;3.84;76.60
85888;BME280;77438;40.406;21.768;2024-03-23T05:05:00;93582.95;;;3.96;76.61
85888;BME280;77438;40.406;21.768;2024-03-23T05:05:56;93582.86;;;4.08;76.56
85888;BME280;77438;40.406;21.768;2024-03-23T05:06:51;93584.95;;;4.20;75.88
85888;BME280;77438;40.406;21.768;2024-03-23T05:07:46;93584.63;;;4.34;75.99
85888;BME280;77438;40.406;21.768;2024-03-23T05:08:42;93587.81;;;4.48;75.64
85888;BME280;77438;40.406;21.768;2024-03-23T05:09:37;93581.84;;;4.62;75.33
85888;BME280;77438;40.406;21.768;2024-03-23T05:10:32;93586.76;;;4.78;74.93
85888;BME280;77438;40.406;21.768;2024-03-23T05:11:27;93584.59;;;4.96;74.73
85888;BME280;77438;40.406;21.768;2024-03-23T05:12:23;93584.42;;;5.17;74.47
85888;BME280;77438;40.406;21.768;2024-03-23T05:13:18;93582.48;;;5.37;73.95
85888;BME280;77438;40.406;21.768;2024-03-23T05:14:14;93576.27;;;5.53;73.56
85888;BME280;77438;40.406;21.768;2024-03-23T05:15:10;93578.98;;;5.78;72.76
85888;BME280;77438;40.406;21.768;2024-03-23T05:16:06;93578.91;;;5.98;71.96
85888;BME280;77438;40.406;21.768;2024-03-23T05:17:01;93581.38;;;6.20;71.83
85888;BME280;77438;40.406;21.768;2024-03-23T05:17:56;93581.23;;;6.40;71.34
85888;BME280;77438;40.406;21.768;2024-03-23T05:18:52;93583.66;;;6.54;70.81
85888;BME280;77438;40.406;21.768;2024-03-23T05:19:47;93582.57;;;6.66;70.35
85888;BME280;77438;40.406;21.768;2024-03-23T05:20:42;93581.20;;;6.73;65.57
85888;BME280;77438;40.406;21.768;2024-03-23T05:21:38;93580.80;;;6.65;65.97
85888;BME280;77438;40.406;21.768;2024-03-23T05:22:33;93578.83;;;6.58;66.47
85888;BME280;77438;40.406;21.768;2024-03-23T05:23:29;93579.59;;;6.54;66.41
85888;BME280;77438;40.406;21.768;2024-03-23T05:24:25;93579.84;;;6.52;64.81
85888;BME280;77438;40.406;21.768;2024-03-23T05:25:20;93581.55;;;6.56;65.75
85888;BME280;77438;40.406;21.768;2024-03-23T05:26:15;93578.98;;;6.66;66.29
85888;BME280;77438;40.406;21.768;2024-03-23T05:27:11;93582.13;;;6.74;66.22
85888;BME280;77438;40.406;21.768;2024-03-23T05:28:06;93583.69;;;6.83;65.98
85888;BME280;77438;40.406;21.768;2024-03-23T05:29:02;93579.69;;;6.92;65.54
85888;BME280;77438;40.406;21.768;2024-03-23T05:29:57;93579.35;;;7.03;65.55
85888;BME280;77438;40.406;21.768;2024-03-23T05:30:56;93580.59;;;7.14;65.27
85888;BME280;77438;40.406;21.768;2024-03-23T05:31:53;93577.63;;;7.24;64.65
85888;BME280;77438;40.406;21.768;2024-03-23T05:32:46;93577.80;;;7.31;64.70
85888;BME280;77438;40.406;21.768;2024-03-23T05:33:41;93581.23;;;7.35;64.50
85888;BME280;77438;40.406;21.768;2024-03-23T05:34:37;93580.23;;;7.37;63.57
85888;BME280;77438;40.406;21.768;2024-03-23T05:35:32;93583.67;;;7.46;64.10
85888;BME280;77438;40.406;21.768;2024-03-23T05:36:27;93579.52;;;7.59;63.64
85888;BME280;77438;40.406;21.768;2024-03-23T05:37:23;93580.95;;;7.72;64.06
85888;BME280;77438;40.406;21.768;2024-03-23T05:38:18;93581.44;;;7.84;63.87
85888;BME280;77438;40.406;21.768;2024-03-23T05:39:13;93579.07;;;7.94;63.52
85888;BME280;77438;40.406;21.768;2024-03-23T05:40:10;93582.87;;;8.09;63.73
85888;BME280;77438;40.406;21.768;2024-03-23T05:41:06;93583.97;;;8.15;62.57
85888;BME280;77438;40.406;21.768;2024-03-23T05:42:01;93585.14;;;8.20;62.04
85888;BME280;77438;40.406;21.768;2024-03-23T05:42:57;93581.37;;;8.30;62.17
85888;BME280;77438;40.406;21.768;2024-03-23T05:43:52;93584.42;;;8.34;61.80
85888;BME280;77438;40.406;21.768;2024-03-23T05:44:47;93581.96;;;8.39;60.49
85888;BME280;77438;40.406;21.768;2024-03-23T05:45:43;93583.50;;;8.34;59.81
85888;BME280;77438;40.406;21.768;2024-03-23T05:46:38;93581.30;;;8.28;59.33
85888;BME280;77438;40.406;21.768;2024-03-23T05:47:33;93580.64;;;8.24;59.62
85888;BME280;77438;40.406;21.768;2024-03-23T05:48:29;93581.65;;;8.28;60.23